sensor_id;sensor_type;location;lat;lon;timestamp;P1;durP1;ratioP1;P2;durP2;ratioP2
8708;SDS011;4391;48.678;9.280;2023-04-28T00:00:52;6.07;;;2.70;;
8708;SDS011;4391;48.678;9.280;2023-04-28T00:03:19;9.15;;;3.15;;
8708;SDS011;4391;48.678;9.280;2023-04-28T00:05:45;6.35;;;2.70;;
8708;SDS011;4391;48.678;9.280;2023-04-28T00:08:14;5.77;;;2.83;;
8708;SDS011;4391;48.678;9.280;2023-04-28T00:10:41;7.85;;;2.65;;
8708;SDS011;4391;48.678;9.280;2023-04-28T00:13:08;7.95;;;2.60;;
8708;SDS011;4391;48.678;9.280;2023-04-28T00:15:35;5.72;;;2.75;;
8708;SDS011;4391;48.678;9.280;2023-04-28T00:18:01;7.90;;;3.17;;
8708;SDS011;4391;48.678;9.280;2023-04-28T00:20:28;6.67;;;2.53;;
8708;SDS011;4391;48.678;9.280;2023-04-28T00:22:55;6.43;;;2.85;;
8708;SDS011;4391;48.678;9.280;2023-04-28T00:25:23;6.55;;;2.88;;
8708;SDS011;4391;48.678;9.280;2023-04-28T00:27:50;6.90;;;2.80;;
8708;SDS011;4391;48.678;9.280;2023-04-28T00:30:17;5.95;;;2.60;;
8708;SDS011;4391;48.678;9.280;2023-04-28T00:32:43;6.07;;;2.90;;
8708;SDS011;4391;48.678;9.280;2023-04-28T00:35:10;8.00;;;2.80;;
8708;SDS011;4391;48.678;9.280;2023-04-28T00:37:37;6.65;;;3.40;;
8708;SDS011;4391;48.678;9.280;2023-04-28T00:40:05;7.22;;;3.00;;
8708;SDS011;4391;48.678;9.280;2023-04-28T00:42:34;7.68;;;3.30;;
8708;SDS011;4391;48.678;9.280;2023-04-28T00:45:01;8.87;;;3.17;;
8708;SDS011;4391;48.678;9.280;2023-04-28T00:47:30;7.65;;;3.05;;
8708;SDS011;4391;48.678;9.280;2023-04-28T00:49:57;8.48;;;3.13;;
8708;SDS011;4391;48.678;9.280;2023-04-28T00:52:25;6.93;;;3.28;;
8708;SDS011;4391;48.678;9.280;2023-04-28T00:54:53;7.18;;;3.13;;
8708;SDS011;4391;48.678;9.280;2023-04-28T00:57:20;7.37;;;3.53;;
8708;SDS011;4391;48.678;9.280;2023-04-28T00:59:49;6.85;;;3.10;;
8708;SDS011;4391;48.678;9.280;2023-04-28T01:02:16;6.40;;;3.20;;
8708;SDS011;4391;48.678;9.280;2023-04-28T01:04:43;7.70;;;3.22;;
8708;SDS011;4391;48.678;9.280;2023-04-28T01:07:10;8.20;;;3.20;;
8708;SDS011;4391;48.678;9.280;2023-04-28T01:09:37;8.13;;;3.57;;
8708;SDS011;4391;48.678;9.280;2023-04-28T01:12:04;7.43;;;3.10;;
8708;SDS011;4391;48.678;9.280;2023-04-28T01:14:31;7.97;;;3.35;;
8708;SDS011;4391;48.678;9.280;2023-04-28T01:17:00;9.90;;;3.40;;
8708;SDS011;4391;48.678;9.280;2023-04-28T01:19:28;9.60;;;3.30;;
8708;SDS011;4391;48.678;9.280;2023-04-28T01:21:54;10.70;;;3.30;;
8708;SDS011;4391;48.678;9.280;2023-04-28T01:24:23;8.85;;;3.30;;
8708;SDS011;4391;48.678;9.280;2023-04-28T01:26:49;9.10;;;3.63;;
8708;SDS011;4391;48.678;9.280;2023-04-28T01:29:16;8.27;;;3.15;;
8708;SDS011;4391;48.678;9.280;2023-04-28T01:31:43;5.85;;;3.08;;
8708;SDS011;4391;48.678;9.280;2023-04-28T01:34:10;7.90;;;3.57;;
8708;SDS011;4391;48.678;9.280;2023-04-28T01:36:37;6.97;;;2.92;;
8708;SDS011;4391;48.678;9.280;2023-04-28T01:39:03;6.85;;;3.30;;
8708;SDS011;4391;48.678;9.280;2023-04-28T01:41:32;7.50;;;3.20;;
8708;SDS011;4391;48.678;9.280;2023-04-28T01:43:59;8.43;;;3.20;;
8708;SDS011;4391;48.678;9.280;2023-04-28T01:46:26;7.20;;;3.47;;
8708;SDS011;4391;48.678;9.280;2023-04-28T01:48:52;8.60;;;3.05;;
8708;SDS011;4391;48.678;9.280;2023-04-28T01:51:19;7.55;;;3.60;;
8708;SDS011;4391;48.678;9.280;2023-04-28T01:53:46;6.65;;;3.38;;
8708;SDS011;4391;48.678;9.280;2023-04-28T01:56:13;8.75;;;3.10;;
8708;SDS011;4391;48.678;9.280;2023-04-28T01:58:41;11.50;;;2.93;;
8708;SDS011;4391;48.678;9.280;2023-04-28T02:01:08;7.75;;;3.60;;
8708;SDS011;4391;48.678;9.280;2023-04-28T02:03:35;8.82;;;3.70;;
8708;SDS011;4391;48.678;9.280;2023-04-28T02:06:02;8.95;;;3.40;;
8708;SDS011;4391;48.678;9.280;2023-04-28T02:08:29;7.70;;;3.30;;
8708;SDS011;4391;48.678;9.280;2023-04-28T02:10:56;7.90;;;3.63;;
8708;SDS011;4391;48.678;9.280;2023-04-28T02:13:25;7.50;;;3.30;;
8708;SDS011;4391;48.678;9.280;2023-04-28T02:15:53;7.25;;;3.67;;
8708;SDS011;4391;48.678;9.280;2023-04-28T02:18:20;7.47;;;3.22;;
8708;SDS011;4391;48.678;9.280;2023-04-28T02:20:47;9.02;;;3.70;;
8708;SDS011;4391;48.678;9.280;2023-04-28T02:23:14;6.83;;;3.30;;
8708;SDS011;4391;48.678;9.280;2023-04-28T02:25:40;7.55;;;3.40;;
8708;SDS011;4391;48.678;9.280;2023-04-28T02:28:07;8.27;;;3.78;;
8708;SDS011;4391;48.678;9.280;2023-04-28T02:30:34;10.82;;;3.60;;
8708;SDS011;4391;48.678;9.280;2023-04-28T02:33:02;7.20;;;3.50;;
8708;SDS011;4391;48.678;9.280;2023-04-28T02:35:29;6.57;;;3.20;;
8708;SDS011;4391;48.678;9.280;2023-04-28T02:37:56;5.93;;;2.95;;
8708;SDS011;4391;48.678;9.280;2023-04-28T02:40:22;7.55;;;3.38;;
8708;SDS011;4391;48.678;9.280;2023-04-28T02:42:49;10.57;;;2.85;;
8708;SDS011;4391;48.678;9.280;2023-04-28T02:45:16;9.40;;;3.22;;
8708;SDS011;4391;48.678;9.280;2023-04-28T02:47:43;8.00;;;3.67;;
8708;SDS011;4391;48.678;9.280;2023-04-28T02:50:11;9.73;;;4.47;;
8708;SDS011;4391;48.678;9.280;2023-04-28T02:52:38;8.13;;;3.42;;
8708;SDS011;4391;48.678;9.280;2023-04-28T02:55:05;7.85;;;2.83;;
8708;SDS011;4391;48.678;9.280;2023-04-28T02:57:32;8.02;;;3.00;;
8708;SDS011;4391;48.678;9.280;2023-04-28T02:59:59;8.43;;;3.60;;
8708;SDS011;4391;48.678;9.280;2023-04-28T03:02:26;5.93;;;3.15;;
8708;SDS011;4391;48.678;9.280;2023-04-28T03:04:53;7.18;;;3.80;;
8708;SDS011;4391;48.678;9.280;2023-04-28T03:07:21;7.68;;;2.97;;
8708;SDS011;4391;48.678;9.280;2023-04-28T03:09:48;8.65;;;3.50;;
8708;SDS011;4391;48.678;9.280;2023-04-28T03:12:14;7.60;;;3.43;;
8708;SDS011;4391;48.678;9.280;2023-04-28T03:14:41;6.30;;;2.92;;
8708;SDS011;4391;48.678;9.280;2023-04-28T03:17:08;9.20;;;3.17;;
8708;SDS011;4391;48.678;9.280;2023-04-28T03:19:35;7.85;;;3.13;;
8708;SDS011;4391;48.678;9.280;2023-04-28T03:22:01;7.40;;;2.95;;
8708;SDS011;4391;48.678;9.280;2023-04-28T03:24:30;9.23;;;3.03;;
8708;SDS011;4391;48.678;9.280;2023-04-28T03:26:56;8.02;;;3.00;;
8708;SDS011;4391;48.678;9.280;2023-04-28T03:29:23;9.80;;;3.10;;
8708;SDS011;4391;48.678;9.280;2023-04-28T03:31:50;6.65;;;3.42;;
8708;SDS011;4391;48.678;9.280;2023-04-28T03:34:17;7.60;;;3.50;;
8708;SDS011;4391;48.678;9.280;2023-04-28T03:36:44;8.10;;;3.80;;
8708;SDS011;4391;48.678;9.280;2023-04-28T03:39:10;7.03;;;3.60;;
8708;SDS011;4391;48.678;9.280;2023-04-28T03:41:39;8.35;;;3.83;;
8708;SDS011;4391;48.678;9.280;2023-04-28T03:44:06;7.40;;;3.65;;
8708;SDS011;4391;48.678;9.280;2023-04-28T03:46:32;7.55;;;3.63;;
8708;SDS011;4391;48.678;9.280;2023-04-28T03:48:59;8.90;;;3.70;;
8708;SDS011;4391;48.678;9.280;2023-04-28T03:51:27;9.32;;;4.00;;
8708;SDS011;4391;48.678;9.280;2023-04-28T03:53:54;8.75;;;3.88;;
8708;SDS011;4391;48.678;9.280;2023-04-28T03:56:21;8.15;;;4.10;;
8708;SDS011;4391;48.678;9.280;2023-04-28T03:58:49;7.25;;;3.58;;
8708;SDS011;4391;48.678;9.280;2023-04-28T04:01:16;8.53;;;3.53;;
8708;SDS011;4391;48.678;9.280;2023-04-28T04:03:43;8.35;;;3.55;;
8708;SDS011;4391;48.678;9.280;2023-04-28T04:06:10;7.57;;;3.10;;
8708;SDS011;4391;48.678;9.280;2023-04-28T04:08:37;7.40;;;3.30;;
8708;SDS011;4391;48.678;9.280;2023-04-28T04:11:04;7.70;;;3.22;;
8708;SDS011;4391;48.678;9.280;2023-04-28T04:13:30;7.97;;;3.23;;
8708;SDS011;4391;48.678;9.280;2023-04-28T04:15:59;8.23;;;3.30;;
8708;SDS011;4391;48.678;9.280;2023-04-28T04:18:26;7.30;;;3.17;;
8708;SDS011;4391;48.678;9.280;2023-04-28T04:20:52;7.32;;;3.78;;
8708;SDS011;4391;48.678;9.280;2023-04-28T04:23:21;9.23;;;3.60;;
8708;SDS011;4391;48.678;9.280;2023-04-28T04:25:48;8.40;;;3.43;;
8708;SDS011;4391;48.678;9.280;2023-04-28T04:28:15;8.38;;;3.58;;
8708;SDS011;4391;48.678;9.280;2023-04-28T04:30:42;7.25;;;3.33;;
8708;SDS011;4391;48.678;9.280;2023-04-28T04:33:10;8.98;;;3.67;;
8708;SDS011;4391;48.678;9.280;2023-04-28T04:35:37;9.52;;;3.88;;
8708;SDS011;4391;48.678;9.280;2023-04-28T04:38:04;9.57;;;3.73;;
8708;SDS011;4391;48.678;9.280;2023-04-28T04:40:31;9.27;;;4.20;;
8708;SDS011;4391;48.678;9.280;2023-04-28T04:42:58;7.78;;;3.67;;
8708;SDS011;4391;48.678;9.280;2023-04-28T04:45:25;9.50;;;3.88;;
8708;SDS011;4391;48.678;9.280;2023-04-28T04:47:52;8.85;;;3.63;;
8708;SDS011;4391;48.678;9.280;2023-04-28T04:50:20;12.50;;;6.03;;
8708;SDS011;4391;48.678;9.280;2023-04-28T04:52:47;11.27;;;6.30;;
8708;SDS011;4391;48.678;9.280;2023-04-28T04:55:14;9.88;;;5.57;;
8708;SDS011;4391;48.678;9.280;2023-04-28T04:57:41;9.48;;;5.40;;
8708;SDS011;4391;48.678;9.280;2023-04-28T05:00:08;8.60;;;4.22;;
8708;SDS011;4391;48.678;9.280;2023-04-28T05:02:36;7.20;;;3.83;;
8708;SDS011;4391;48.678;9.280;2023-04-28T05:05:03;7.30;;;3.15;;
8708;SDS011;4391;48.678;9.280;2023-04-28T05:07:31;7.20;;;3.00;;
8708;SDS011;4391;48.678;9.280;2023-04-28T05:09:58;9.45;;;3.00;;
8708;SDS011;4391;48.678;9.280;2023-04-28T05:12:25;7.35;;;3.00;;
8708;SDS011;4391;48.678;9.280;2023-04-28T05:14:52;7.90;;;3.00;;
8708;SDS011;4391;48.678;9.280;2023-04-28T05:17:18;11.30;;;4.00;;
8708;SDS011;4391;48.678;9.280;2023-04-28T05:19:45;8.60;;;3.58;;
8708;SDS011;4391;48.678;9.280;2023-04-28T05:22:12;7.55;;;3.40;;
8708;SDS011;4391;48.678;9.280;2023-04-28T05:24:40;8.73;;;3.85;;
8708;SDS011;4391;48.678;9.280;2023-04-28T05:27:07;8.13;;;3.40;;
8708;SDS011;4391;48.678;9.280;2023-04-28T05:29:34;7.72;;;3.60;;
8708;SDS011;4391;48.678;9.280;2023-04-28T05:32:01;7.97;;;3.40;;
8708;SDS011;4391;48.678;9.280;2023-04-28T05:34:27;6.75;;;3.28;;
8708;SDS011;4391;48.678;9.280;2023-04-28T05:36:54;9.05;;;3.63;;
8708;SDS011;4391;48.678;9.280;2023-04-28T05:39:21;8.60;;;3.83;;
8708;SDS011;4391;48.678;9.280;2023-04-28T05:41:49;7.70;;;3.50;;
8708;SDS011;4391;48.678;9.280;2023-04-28T05:44:16;6.97;;;3.08;;
8708;SDS011;4391;48.678;9.280;2023-04-28T05:46:43;7.03;;;3.40;;
8708;SDS011;4391;48.678;9.280;2023-04-28T05:49:10;10.60;;;3.88;;
8708;SDS011;4391;48.678;9.280;2023-04-28T05:51:37;6.90;;;3.67;;
8708;SDS011;4391;48.678;9.280;2023-04-28T05:54:03;8.85;;;4.07;;
8708;SDS011;4391;48.678;9.280;2023-04-28T05:56:31;7.97;;;4.05;;
8708;SDS011;4391;48.678;9.280;2023-04-28T05:58:59;11.68;;;4.25;;
8708;SDS011;4391;48.678;9.280;2023-04-28T06:01:28;11.15;;;4.07;;
8708;SDS011;4391;48.678;9.280;2023-04-28T06:03:55;8.60;;;4.37;;
8708;SDS011;4391;48.678;9.280;2023-04-28T06:06:22;11.57;;;4.55;;
8708;SDS011;4391;48.678;9.280;2023-04-28T06:08:49;10.27;;;4.53;;
8708;SDS011;4391;48.678;9.280;2023-04-28T06:11:16;10.93;;;4.32;;
8708;SDS011;4391;48.678;9.280;2023-04-28T06:13:46;9.23;;;4.60;;
8708;SDS011;4391;48.678;9.280;2023-04-28T06:16:14;7.53;;;4.07;;
8708;SDS011;4391;48.678;9.280;2023-04-28T06:18:41;11.27;;;4.40;;
8708;SDS011;4391;48.678;9.280;2023-04-28T06:21:08;11.65;;;4.53;;
8708;SDS011;4391;48.678;9.280;2023-04-28T06:23:35;9.48;;;4.30;;
8708;SDS011;4391;48.678;9.280;2023-04-28T06:26:04;7.55;;;4.43;;
8708;SDS011;4391;48.678;9.280;2023-04-28T06:28:31;8.70;;;4.47;;
8708;SDS011;4391;48.678;9.280;2023-04-28T06:30:58;9.93;;;4.65;;
8708;SDS011;4391;48.678;9.280;2023-04-28T06:33:26;10.85;;;5.20;;
8708;SDS011;4391;48.678;9.280;2023-04-28T06:35:53;9.68;;;4.80;;
8708;SDS011;4391;48.678;9.280;2023-04-28T06:38:20;10.63;;;4.75;;
8708;SDS011;4391;48.678;9.280;2023-04-28T06:40:47;11.47;;;5.57;;
8708;SDS011;4391;48.678;9.280;2023-04-28T06:43:13;11.55;;;5.25;;
8708;SDS011;4391;48.678;9.280;2023-04-28T06:45:40;11.27;;;5.63;;
8708;SDS011;4391;48.678;9.280;2023-04-28T06:48:07;10.75;;;5.60;;
8708;SDS011;4391;48.678;9.280;2023-04-28T06:50:36;12.30;;;5.25;;
8708;SDS011;4391;48.678;9.280;2023-04-28T06:53:03;10.17;;;5.00;;
8708;SDS011;4391;48.678;9.280;2023-04-28T06:55:31;9.73;;;5.30;;
8708;SDS011;4391;48.678;9.280;2023-04-28T06:57:59;11.35;;;5.82;;
8708;SDS011;4391;48.678;9.280;2023-04-28T07:00:25;8.75;;;5.03;;
8708;SDS011;4391;48.678;9.280;2023-04-28T07:02:52;10.15;;;5.55;;
8708;SDS011;4391;48.678;9.280;2023-04-28T07:05:19;13.00;;;5.40;;
8708;SDS011;4391;48.678;9.280;2023-04-28T07:07:48;13.38;;;5.25;;
8708;SDS011;4391;48.678;9.280;2023-04-28T07:10:15;10.88;;;5.70;;
8708;SDS011;4391;48.678;9.280;2023-04-28T07:12:42;10.82;;;5.93;;
8708;SDS011;4391;48.678;9.280;2023-04-28T07:15:09;11.35;;;5.35;;
8708;SDS011;4391;48.678;9.280;2023-04-28T07:17:39;10.90;;;5.53;;
8708;SDS011;4391;48.678;9.280;2023-04-28T07:20:06;11.63;;;5.55;;
8708;SDS011;4391;48.678;9.280;2023-04-28T07:22:34;13.52;;;6.40;;
8708;SDS011;4391;48.678;9.280;2023-04-28T07:25:04;12.13;;;5.50;;
8708;SDS011;4391;48.678;9.280;2023-04-28T07:27:31;12.93;;;5.47;;
8708;SDS011;4391;48.678;9.280;2023-04-28T07:29:58;11.43;;;5.37;;
8708;SDS011;4391;48.678;9.280;2023-04-28T07:32:25;14.35;;;5.78;;
8708;SDS011;4391;48.678;9.280;2023-04-28T07:34:52;12.60;;;5.38;;
8708;SDS011;4391;48.678;9.280;2023-04-28T07:37:19;12.63;;;5.55;;
8708;SDS011;4391;48.678;9.280;2023-04-28T07:39:45;10.73;;;5.55;;
8708;SDS011;4391;48.678;9.280;2023-04-28T07:42:13;13.40;;;5.60;;
8708;SDS011;4391;48.678;9.280;2023-04-28T07:44:41;15.88;;;6.15;;
8708;SDS011;4391;48.678;9.280;2023-04-28T07:47:08;11.45;;;5.50;;
8708;SDS011;4391;48.678;9.280;2023-04-28T07:49:34;10.50;;;5.03;;
8708;SDS011;4391;48.678;9.280;2023-04-28T07:52:01;9.00;;;4.00;;
8708;SDS011;4391;48.678;9.280;2023-04-28T07:54:28;6.77;;;3.33;;
8708;SDS011;4391;48.678;9.280;2023-04-28T07:56:55;9.38;;;3.88;;
8708;SDS011;4391;48.678;9.280;2023-04-28T07:59:24;8.73;;;4.35;;
8708;SDS011;4391;48.678;9.280;2023-04-28T08:01:51;8.30;;;3.83;;
8708;SDS011;4391;48.678;9.280;2023-04-28T08:04:18;7.93;;;4.35;;
8708;SDS011;4391;48.678;9.280;2023-04-28T08:06:44;10.93;;;4.27;;
8708;SDS011;4391;48.678;9.280;2023-04-28T08:09:11;12.20;;;4.50;;
8708;SDS011;4391;48.678;9.280;2023-04-28T08:11:38;10.13;;;4.57;;
8708;SDS011;4391;48.678;9.280;2023-04-28T08:14:05;10.15;;;4.07;;
8708;SDS011;4391;48.678;9.280;2023-04-28T08:16:33;10.40;;;4.40;;
8708;SDS011;4391;48.678;9.280;2023-04-28T08:19:02;7.60;;;3.93;;
8708;SDS011;4391;48.678;9.280;2023-04-28T08:21:29;6.97;;;3.50;;
8708;SDS011;4391;48.678;9.280;2023-04-28T08:23:56;7.47;;;3.58;;
8708;SDS011;4391;48.678;9.280;2023-04-28T08:26:23;9.40;;;3.80;;
8708;SDS011;4391;48.678;9.280;2023-04-28T08:28:50;7.65;;;3.55;;
8708;SDS011;4391;48.678;9.280;2023-04-28T08:31:18;11.00;;;4.40;;
8708;SDS011;4391;48.678;9.280;2023-04-28T08:33:46;7.75;;;3.53;;
8708;SDS011;4391;48.678;9.280;2023-04-28T08:36:15;9.77;;;3.92;;
8708;SDS011;4391;48.678;9.280;2023-04-28T08:38:42;7.72;;;3.10;;
8708;SDS011;4391;48.678;9.280;2023-04-28T08:41:09;6.70;;;3.47;;
8708;SDS011;4391;48.678;9.280;2023-04-28T08:43:37;6.00;;;2.87;;
8708;SDS011;4391;48.678;9.280;2023-04-28T08:46:10;6.32;;;2.97;;
8708;SDS011;4391;48.678;9.280;2023-04-28T08:48:40;5.10;;;2.60;;
8708;SDS011;4391;48.678;9.280;2023-04-28T08:51:11;5.70;;;2.70;;
8708;SDS011;4391;48.678;9.280;2023-04-28T08:53:43;7.20;;;2.97;;
8708;SDS011;4391;48.678;9.280;2023-04-28T08:56:15;6.00;;;2.73;;
8708;SDS011;4391;48.678;9.280;2023-04-28T08:58:44;7.20;;;2.78;;
8708;SDS011;4391;48.678;9.280;2023-04-28T09:01:10;7.38;;;3.20;;
8708;SDS011;4391;48.678;9.280;2023-04-28T09:03:40;5.90;;;2.70;;
8708;SDS011;4391;48.678;9.280;2023-04-28T09:06:07;5.18;;;2.83;;
8708;SDS011;4391;48.678;9.280;2023-04-28T09:08:35;5.30;;;2.53;;
8708;SDS011;4391;48.678;9.280;2023-04-28T09:11:05;5.30;;;2.45;;
8708;SDS011;4391;48.678;9.280;2023-04-28T09:13:33;6.13;;;2.60;;
8708;SDS011;4391;48.678;9.280;2023-04-28T09:16:01;6.00;;;2.33;;
8708;SDS011;4391;48.678;9.280;2023-04-28T09:18:29;4.78;;;2.42;;
8708;SDS011;4391;48.678;9.280;2023-04-28T09:21:03;5.23;;;2.43;;
8708;SDS011;4391;48.678;9.280;2023-04-28T09:23:31;6.22;;;2.40;;
8708;SDS011;4391;48.678;9.280;2023-04-28T09:26:00;6.72;;;2.83;;
8708;SDS011;4391;48.678;9.280;2023-04-28T09:28:29;6.80;;;2.20;;
8708;SDS011;4391;48.678;9.280;2023-04-28T09:30:56;6.25;;;2.25;;
8708;SDS011;4391;48.678;9.280;2023-04-28T09:33:23;6.20;;;2.10;;
8708;SDS011;4391;48.678;9.280;2023-04-28T09:35:50;5.43;;;2.22;;
8708;SDS011;4391;48.678;9.280;2023-04-28T09:38:18;6.43;;;2.05;;
8708;SDS011;4391;48.678;9.280;2023-04-28T09:40:49;5.63;;;2.00;;
8708;SDS011;4391;48.678;9.280;2023-04-28T09:43:29;4.32;;;2.20;;
8708;SDS011;4391;48.678;9.280;2023-04-28T09:45:57;4.63;;;1.57;;
8708;SDS011;4391;48.678;9.280;2023-04-28T09:48:25;4.40;;;1.98;;
8708;SDS011;4391;48.678;9.280;2023-04-28T09:50:54;4.13;;;1.85;;
8708;SDS011;4391;48.678;9.280;2023-04-28T09:53:21;5.40;;;1.92;;
8708;SDS011;4391;48.678;9.280;2023-04-28T09:55:51;3.85;;;1.85;;
8708;SDS011;4391;48.678;9.280;2023-04-28T09:58:20;5.43;;;2.00;;
8708;SDS011;4391;48.678;9.280;2023-04-28T10:00:50;5.43;;;1.60;;
8708;SDS011;4391;48.678;9.280;2023-04-28T10:03:20;4.57;;;1.63;;
8708;SDS011;4391;48.678;9.280;2023-04-28T10:05:48;4.57;;;1.73;;
8708;SDS011;4391;48.678;9.280;2023-04-28T10:08:17;4.25;;;1.80;;
8708;SDS011;4391;48.678;9.280;2023-04-28T10:10:44;3.57;;;1.30;;
8708;SDS011;4391;48.678;9.280;2023-04-28T10:13:13;4.43;;;1.40;;
8708;SDS011;4391;48.678;9.280;2023-04-28T10:15:41;4.30;;;1.50;;
8708;SDS011;4391;48.678;9.280;2023-04-28T10:18:10;4.72;;;1.60;;
8708;SDS011;4391;48.678;9.280;2023-04-28T10:20:37;4.07;;;1.33;;
8708;SDS011;4391;48.678;9.280;2023-04-28T10:23:14;4.37;;;1.43;;
8708;SDS011;4391;48.678;9.280;2023-04-28T10:25:53;4.30;;;1.80;;
8708;SDS011;4391;48.678;9.280;2023-04-28T10:28:22;4.70;;;1.40;;
8708;SDS011;4391;48.678;9.280;2023-04-28T10:33:36;3.15;;;1.27;;
8708;SDS011;4391;48.678;9.280;2023-04-28T10:36:04;3.10;;;1.10;;
8708;SDS011;4391;48.678;9.280;2023-04-28T10:38:31;2.38;;;0.90;;
8708;SDS011;4391;48.678;9.280;2023-04-28T10:40:59;3.08;;;0.90;;
8708;SDS011;4391;48.678;9.280;2023-04-28T10:43:37;4.57;;;1.08;;
8708;SDS011;4391;48.678;9.280;2023-04-28T10:46:05;2.45;;;0.90;;
8708;SDS011;4391;48.678;9.280;2023-04-28T10:48:52;2.13;;;0.83;;
8708;SDS011;4391;48.678;9.280;2023-04-28T10:51:21;2.45;;;0.93;;
8708;SDS011;4391;48.678;9.280;2023-04-28T10:54:13;2.88;;;0.90;;
8708;SDS011;4391;48.678;9.280;2023-04-28T10:59:45;1.88;;;0.80;;
8708;SDS011;4391;48.678;9.280;2023-04-28T11:05:13;2.22;;;0.88;;
8708;SDS011;4391;48.678;9.280;2023-04-28T11:13:40;2.72;;;0.90;;
8708;SDS011;4391;48.678;9.280;2023-04-28T11:16:10;1.93;;;0.70;;
8708;SDS011;4391;48.678;9.280;2023-04-28T11:18:55;3.35;;;0.88;;
8708;SDS011;4391;48.678;9.280;2023-04-28T11:21:25;4.38;;;1.10;;
8708;SDS011;4391;48.678;9.280;2023-04-28T11:23:53;3.35;;;1.00;;
8708;SDS011;4391;48.678;9.280;2023-04-28T11:26:20;3.70;;;1.00;;
8708;SDS011;4391;48.678;9.280;2023-04-28T11:28:49;2.77;;;0.70;;
8708;SDS011;4391;48.678;9.280;2023-04-28T11:31:17;1.88;;;0.68;;
8708;SDS011;4391;48.678;9.280;2023-04-28T11:33:46;2.15;;;0.75;;
8708;SDS011;4391;48.678;9.280;2023-04-28T11:36:23;2.88;;;1.08;;
8708;SDS011;4391;48.678;9.280;2023-04-28T11:38:53;2.20;;;0.80;;
8708;SDS011;4391;48.678;9.280;2023-04-28T11:41:20;1.83;;;0.80;;
8708;SDS011;4391;48.678;9.280;2023-04-28T11:43:47;2.17;;;0.85;;
8708;SDS011;4391;48.678;9.280;2023-04-28T11:46:18;1.90;;;0.80;;
8708;SDS011;4391;48.678;9.280;2023-04-28T11:48:46;2.75;;;0.60;;
8708;SDS011;4391;48.678;9.280;2023-04-28T11:54:00;2.73;;;0.53;;
8708;SDS011;4391;48.678;9.280;2023-04-28T11:56:28;3.88;;;0.60;;
8708;SDS011;4391;48.678;9.280;2023-04-28T11:59:02;2.42;;;0.50;;
8708;SDS011;4391;48.678;9.280;2023-04-28T12:01:30;2.63;;;0.52;;
8708;SDS011;4391;48.678;9.280;2023-04-28T12:03:58;1.83;;;0.60;;
8708;SDS011;4391;48.678;9.280;2023-04-28T12:06:25;2.30;;;0.80;;
8708;SDS011;4391;48.678;9.280;2023-04-28T12:08:54;1.08;;;0.40;;
8708;SDS011;4391;48.678;9.280;2023-04-28T12:11:21;2.05;;;0.52;;
8708;SDS011;4391;48.678;9.280;2023-04-28T12:14:04;5.10;;;0.68;;
8708;SDS011;4391;48.678;9.280;2023-04-28T12:16:38;1.40;;;0.50;;
8708;SDS011;4391;48.678;9.280;2023-04-28T12:19:08;2.27;;;0.50;;
8708;SDS011;4391;48.678;9.280;2023-04-28T12:21:36;2.25;;;0.50;;
8708;SDS011;4391;48.678;9.280;2023-04-28T12:24:17;2.20;;;0.60;;
8708;SDS011;4391;48.678;9.280;2023-04-28T12:26:45;1.88;;;0.50;;
8708;SDS011;4391;48.678;9.280;2023-04-28T12:32:05;0.80;;;0.30;;
8708;SDS011;4391;48.678;9.280;2023-04-28T12:34:33;0.98;;;0.50;;
8708;SDS011;4391;48.678;9.280;2023-04-28T12:37:00;1.98;;;0.68;;
8708;SDS011;4391;48.678;9.280;2023-04-28T12:39:31;0.98;;;0.50;;
8708;SDS011;4391;48.678;9.280;2023-04-28T12:42:02;1.38;;;0.40;;
8708;SDS011;4391;48.678;9.280;2023-04-28T12:44:33;1.23;;;0.43;;
8708;SDS011;4391;48.678;9.280;2023-04-28T12:47:02;1.65;;;0.40;;
8708;SDS011;4391;48.678;9.280;2023-04-28T12:49:29;1.95;;;0.40;;
8708;SDS011;4391;48.678;9.280;2023-04-28T12:51:56;1.10;;;0.40;;
8708;SDS011;4391;48.678;9.280;2023-04-28T12:54:23;0.95;;;0.40;;
8708;SDS011;4391;48.678;9.280;2023-04-28T12:56:52;2.90;;;0.50;;
8708;SDS011;4391;48.678;9.280;2023-04-28T12:59:20;2.35;;;0.50;;
8708;SDS011;4391;48.678;9.280;2023-04-28T13:01:49;0.77;;;0.40;;
8708;SDS011;4391;48.678;9.280;2023-04-28T13:04:16;4.63;;;0.50;;
8708;SDS011;4391;48.678;9.280;2023-04-28T13:06:43;2.17;;;0.35;;
8708;SDS011;4391;48.678;9.280;2023-04-28T13:09:10;1.10;;;0.30;;
8708;SDS011;4391;48.678;9.280;2023-04-28T13:11:37;1.35;;;0.38;;
8708;SDS011;4391;48.678;9.280;2023-04-28T13:14:06;1.42;;;0.60;;
8708;SDS011;4391;48.678;9.280;2023-04-28T13:16:33;3.35;;;0.80;;
8708;SDS011;4391;48.678;9.280;2023-04-28T13:19:00;2.58;;;0.50;;
8708;SDS011;4391;48.678;9.280;2023-04-28T13:21:28;1.07;;;0.40;;
8708;SDS011;4391;48.678;9.280;2023-04-28T13:23:55;0.90;;;0.30;;
8708;SDS011;4391;48.678;9.280;2023-04-28T13:26:26;1.05;;;0.40;;
8708;SDS011;4391;48.678;9.280;2023-04-28T13:28:54;2.47;;;0.50;;
8708;SDS011;4391;48.678;9.280;2023-04-28T13:31:22;1.60;;;0.50;;
8708;SDS011;4391;48.678;9.280;2023-04-28T13:33:49;1.73;;;0.50;;
8708;SDS011;4391;48.678;9.280;2023-04-28T13:36:16;2.05;;;0.40;;
8708;SDS011;4391;48.678;9.280;2023-04-28T13:38:46;0.93;;;0.50;;
8708;SDS011;4391;48.678;9.280;2023-04-28T13:41:13;0.60;;;0.30;;
8708;SDS011;4391;48.678;9.280;2023-04-28T13:43:40;1.20;;;0.47;;
8708;SDS011;4391;48.678;9.280;2023-04-28T13:46:07;0.70;;;0.30;;
8708;SDS011;4391;48.678;9.280;2023-04-28T13:48:38;1.10;;;0.40;;
8708;SDS011;4391;48.678;9.280;2023-04-28T13:51:06;1.23;;;0.45;;
8708;SDS011;4391;48.678;9.280;2023-04-28T13:53:34;1.17;;;0.32;;
8708;SDS011;4391;48.678;9.280;2023-04-28T13:56:02;1.30;;;0.60;;
8708;SDS011;4391;48.678;9.280;2023-04-28T13:58:31;1.47;;;0.50;;
8708;SDS011;4391;48.678;9.280;2023-04-28T14:00:58;2.35;;;0.50;;
8708;SDS011;4391;48.678;9.280;2023-04-28T14:03:25;1.23;;;0.43;;
8708;SDS011;4391;48.678;9.280;2023-04-28T14:05:54;1.00;;;0.40;;
8708;SDS011;4391;48.678;9.280;2023-04-28T14:08:22;1.35;;;0.60;;
8708;SDS011;4391;48.678;9.280;2023-04-28T14:10:51;1.70;;;0.50;;
8708;SDS011;4391;48.678;9.280;2023-04-28T14:13:18;1.20;;;0.50;;
8708;SDS011;4391;48.678;9.280;2023-04-28T14:15:45;1.55;;;0.50;;
8708;SDS011;4391;48.678;9.280;2023-04-28T14:18:12;2.97;;;0.50;;
8708;SDS011;4391;48.678;9.280;2023-04-28T14:20:39;4.20;;;1.23;;
8708;SDS011;4391;48.678;9.280;2023-04-28T14:23:07;4.60;;;0.67;;
8708;SDS011;4391;48.678;9.280;2023-04-28T14:25:34;2.97;;;0.70;;
8708;SDS011;4391;48.678;9.280;2023-04-28T14:28:01;2.78;;;0.90;;
8708;SDS011;4391;48.678;9.280;2023-04-28T14:30:28;2.33;;;0.88;;
8708;SDS011;4391;48.678;9.280;2023-04-28T14:32:56;1.10;;;0.50;;
8708;SDS011;4391;48.678;9.280;2023-04-28T14:35:23;1.43;;;0.50;;
8708;SDS011;4391;48.678;9.280;2023-04-28T14:37:51;4.82;;;1.20;;
8708;SDS011;4391;48.678;9.280;2023-04-28T14:40:19;2.67;;;0.85;;
8708;SDS011;4391;48.678;9.280;2023-04-28T14:42:46;2.75;;;0.50;;
8708;SDS011;4391;48.678;9.280;2023-04-28T14:45:14;1.67;;;0.60;;
8708;SDS011;4391;48.678;9.280;2023-04-28T14:47:41;4.30;;;0.60;;
8708;SDS011;4391;48.678;9.280;2023-04-28T14:50:09;3.15;;;0.85;;
8708;SDS011;4391;48.678;9.280;2023-04-28T14:52:36;2.00;;;0.70;;
8708;SDS011;4391;48.678;9.280;2023-04-28T14:55:05;1.60;;;0.60;;
8708;SDS011;4391;48.678;9.280;2023-04-28T14:57:34;1.20;;;0.50;;
8708;SDS011;4391;48.678;9.280;2023-04-28T15:00:02;1.70;;;0.50;;
8708;SDS011;4391;48.678;9.280;2023-04-28T15:02:31;1.20;;;0.50;;
8708;SDS011;4391;48.678;9.280;2023-04-28T15:04:58;1.38;;;0.32;;
8708;SDS011;4391;48.678;9.280;2023-04-28T15:07:25;2.72;;;0.50;;
8708;SDS011;4391;48.678;9.280;2023-04-28T15:09:55;3.22;;;1.02;;
8708;SDS011;4391;48.678;9.280;2023-04-28T15:12:25;1.13;;;0.30;;
8708;SDS011;4391;48.678;9.280;2023-04-28T15:14:55;4.15;;;0.60;;
8708;SDS011;4391;48.678;9.280;2023-04-28T15:17:22;2.05;;;0.70;;
8708;SDS011;4391;48.678;9.280;2023-04-28T15:19:49;1.35;;;0.45;;
8708;SDS011;4391;48.678;9.280;2023-04-28T15:22:16;2.20;;;0.80;;
8708;SDS011;4391;48.678;9.280;2023-04-28T15:27:33;2.67;;;0.90;;
8708;SDS011;4391;48.678;9.280;2023-04-28T15:30:01;2.60;;;0.70;;
8708;SDS011;4391;48.678;9.280;2023-04-28T15:35:24;4.50;;;1.98;;
8708;SDS011;4391;48.678;9.280;2023-04-28T15:37:51;2.13;;;0.80;;
8708;SDS011;4391;48.678;9.280;2023-04-28T15:40:19;2.72;;;0.80;;
8708;SDS011;4391;48.678;9.280;2023-04-28T15:42:47;1.20;;;0.50;;